sensor_id;sensor_type;location;lat;lon;timestamp;P1;durP1;ratioP1;P2;durP2;ratioP2
75209;SDS011;63796;53.136;14.882;2023-01-29T00:02:08;8.50;;;3.00;;
75209;SDS011;63796;53.136;14.882;2023-01-29T00:04:36;10.80;;;3.50;;
75209;SDS011;63796;53.136;14.882;2023-01-29T00:07:03;6.60;;;2.40;;
75209;SDS011;63796;53.136;14.882;2023-01-29T00:09:30;8.30;;;3.10;;
75209;SDS011;63796;53.136;14.882;2023-01-29T00:11:58;8.70;;;2.70;;
75209;SDS011;63796;53.136;14.882;2023-01-29T00:14:25;7.10;;;2.40;;
75209;SDS011;63796;53.136;14.882;2023-01-29T00:16:55;6.60;;;2.80;;
75209;SDS011;63796;53.136;14.882;2023-01-29T00:19:22;5.70;;;2.20;;
75209;SDS011;63796;53.136;14.882;2023-01-29T00:21:49;6.80;;;2.80;;
75209;SDS011;63796;53.136;14.882;2023-01-29T00:24:16;4.90;;;2.30;;
75209;SDS011;63796;53.136;14.882;2023-01-29T00:26:43;7.00;;;2.40;;
75209;SDS011;63796;53.136;14.882;2023-01-29T00:29:10;4.70;;;2.30;;
75209;SDS011;63796;53.136;14.882;2023-01-29T00:31:37;5.50;;;2.30;;
75209;SDS011;63796;53.136;14.882;2023-01-29T00:34:05;5.60;;;2.20;;
75209;SDS011;63796;53.136;14.882;2023-01-29T00:36:33;5.70;;;2.50;;
75209;SDS011;63796;53.136;14.882;2023-01-29T00:39:00;13.10;;;5.20;;
75209;SDS011;63796;53.136;14.882;2023-01-29T00:41:36;6.30;;;2.60;;
75209;SDS011;63796;53.136;14.882;2023-01-29T00:44:22;6.00;;;3.50;;
75209;SDS011;63796;53.136;14.882;2023-01-29T00:47:08;7.60;;;2.50;;
75209;SDS011;63796;53.136;14.882;2023-01-29T00:49:56;6.90;;;2.50;;
75209;SDS011;63796;53.136;14.882;2023-01-29T00:52:24;7.80;;;2.90;;
75209;SDS011;63796;53.136;14.882;2023-01-29T00:54:54;9.90;;;4.10;;
75209;SDS011;63796;53.136;14.882;2023-01-29T00:57:23;12.20;;;4.60;;
75209;SDS011;63796;53.136;14.882;2023-01-29T00:59:50;16.60;;;5.40;;
75209;SDS011;63796;53.136;14.882;2023-01-29T01:02:18;10.40;;;4.60;;
75209;SDS011;63796;53.136;14.882;2023-01-29T01:05:05;10.60;;;4.70;;
75209;SDS011;63796;53.136;14.882;2023-01-29T01:07:33;18.70;;;7.50;;
75209;SDS011;63796;53.136;14.882;2023-01-29T01:10:00;11.00;;;4.50;;
75209;SDS011;63796;53.136;14.882;2023-01-29T01:12:48;11.30;;;3.30;;
75209;SDS011;63796;53.136;14.882;2023-01-29T01:15:17;4.70;;;2.30;;
75209;SDS011;63796;53.136;14.882;2023-01-29T01:17:44;11.20;;;3.70;;
75209;SDS011;63796;53.136;14.882;2023-01-29T01:20:12;8.30;;;4.00;;
75209;SDS011;63796;53.136;14.882;2023-01-29T01:22:39;9.80;;;3.80;;
75209;SDS011;63796;53.136;14.882;2023-01-29T01:25:07;10.90;;;4.90;;
75209;SDS011;63796;53.136;14.882;2023-01-29T01:27:34;11.40;;;4.80;;
75209;SDS011;63796;53.136;14.882;2023-01-29T01:30:03;12.10;;;4.50;;
75209;SDS011;63796;53.136;14.882;2023-01-29T01:32:31;14.70;;;5.60;;
75209;SDS011;63796;53.136;14.882;2023-01-29T01:34:58;16.80;;;6.10;;
75209;SDS011;63796;53.136;14.882;2023-01-29T01:37:25;13.20;;;5.30;;
75209;SDS011;63796;53.136;14.882;2023-01-29T01:39:52;14.30;;;4.40;;
75209;SDS011;63796;53.136;14.882;2023-01-29T01:42:28;9.20;;;4.30;;
75209;SDS011;63796;53.136;14.882;2023-01-29T01:44:59;13.50;;;5.70;;
75209;SDS011;63796;53.136;14.882;2023-01-29T01:47:43;14.10;;;5.50;;
75209;SDS011;63796;53.136;14.882;2023-01-29T01:50:34;11.80;;;5.20;;
75209;SDS011;63796;53.136;14.882;2023-01-29T01:53:10;22.80;;;8.30;;
75209;SDS011;63796;53.136;14.882;2023-01-29T01:55:43;9.70;;;3.40;;
75209;SDS011;63796;53.136;14.882;2023-01-29T01:58:16;9.60;;;4.30;;
75209;SDS011;63796;53.136;14.882;2023-01-29T02:00:44;7.60;;;4.00;;
75209;SDS011;63796;53.136;14.882;2023-01-29T02:03:11;11.70;;;5.20;;
75209;SDS011;63796;53.136;14.882;2023-01-29T02:05:58;17.00;;;6.30;;
75209;SDS011;63796;53.136;14.882;2023-01-29T02:09:01;8.60;;;3.90;;
75209;SDS011;63796;53.136;14.882;2023-01-29T02:11:47;11.90;;;5.80;;
75209;SDS011;63796;53.136;14.882;2023-01-29T02:14:14;15.90;;;6.90;;
75209;SDS011;63796;53.136;14.882;2023-01-29T02:16:42;14.90;;;6.00;;
75209;SDS011;63796;53.136;14.882;2023-01-29T02:19:15;19.60;;;6.80;;
75209;SDS011;63796;53.136;14.882;2023-01-29T02:22:01;11.90;;;4.60;;
75209;SDS011;63796;53.136;14.882;2023-01-29T02:24:47;12.30;;;5.60;;
75209;SDS011;63796;53.136;14.882;2023-01-29T02:27:24;17.30;;;6.80;;
75209;SDS011;63796;53.136;14.882;2023-01-29T02:30:04;13.30;;;5.90;;
75209;SDS011;63796;53.136;14.882;2023-01-29T02:38:09;11.50;;;5.00;;
75209;SDS011;63796;53.136;14.882;2023-01-29T02:40:44;13.00;;;5.50;;
75209;SDS011;63796;53.136;14.882;2023-01-29T02:43:31;11.50;;;4.90;;
75209;SDS011;63796;53.136;14.882;2023-01-29T02:46:07;10.70;;;4.50;;
75209;SDS011;63796;53.136;14.882;2023-01-29T02:48:53;8.20;;;4.20;;
75209;SDS011;63796;53.136;14.882;2023-01-29T02:57:16;11.30;;;5.30;;
75209;SDS011;63796;53.136;14.882;2023-01-29T02:59:50;9.30;;;3.90;;
75209;SDS011;63796;53.136;14.882;2023-01-29T03:02:28;9.50;;;5.00;;
75209;SDS011;63796;53.136;14.882;2023-01-29T03:05:02;10.50;;;4.80;;
75209;SDS011;63796;53.136;14.882;2023-01-29T03:07:36;9.00;;;4.20;;
75209;SDS011;63796;53.136;14.882;2023-01-29T03:10:14;11.50;;;4.70;;
75209;SDS011;63796;53.136;14.882;2023-01-29T03:12:47;10.10;;;4.30;;
75209;SDS011;63796;53.136;14.882;2023-01-29T03:15:21;10.00;;;4.30;;
75209;SDS011;63796;53.136;14.882;2023-01-29T03:18:23;7.00;;;4.00;;
75209;SDS011;63796;53.136;14.882;2023-01-29T03:20:59;9.40;;;4.00;;
75209;SDS011;63796;53.136;14.882;2023-01-29T03:23:29;10.40;;;4.80;;
75209;SDS011;63796;53.136;14.882;2023-01-29T03:26:19;6.90;;;4.30;;
75209;SDS011;63796;53.136;14.882;2023-01-29T03:29:06;10.80;;;4.60;;
75209;SDS011;63796;53.136;14.882;2023-01-29T03:31:54;13.60;;;4.70;;
75209;SDS011;63796;53.136;14.882;2023-01-29T03:34:39;9.40;;;4.60;;
75209;SDS011;63796;53.136;14.882;2023-01-29T03:37:23;10.60;;;5.00;;
75209;SDS011;63796;53.136;14.882;2023-01-29T03:39:51;13.10;;;5.20;;
75209;SDS011;63796;53.136;14.882;2023-01-29T03:42:56;9.30;;;4.20;;
75209;SDS011;63796;53.136;14.882;2023-01-29T03:45:38;13.80;;;6.30;;
75209;SDS011;63796;53.136;14.882;2023-01-29T03:48:22;11.20;;;5.00;;
75209;SDS011;63796;53.136;14.882;2023-01-29T03:54:01;13.10;;;5.40;;
75209;SDS011;63796;53.136;14.882;2023-01-29T03:59:36;9.20;;;4.90;;
75209;SDS011;63796;53.136;14.882;2023-01-29T04:02:26;10.30;;;4.70;;
75209;SDS011;63796;53.136;14.882;2023-01-29T04:05:03;12.20;;;5.10;;
75209;SDS011;63796;53.136;14.882;2023-01-29T04:07:32;13.20;;;6.00;;
75209;SDS011;63796;53.136;14.882;2023-01-29T04:10:08;10.70;;;5.20;;
75209;SDS011;63796;53.136;14.882;2023-01-29T04:12:40;10.70;;;5.00;;
75209;SDS011;63796;53.136;14.882;2023-01-29T04:15:12;10.90;;;5.20;;
75209;SDS011;63796;53.136;14.882;2023-01-29T04:17:54;12.80;;;5.70;;
75209;SDS011;63796;53.136;14.882;2023-01-29T04:20:22;11.10;;;5.80;;
75209;SDS011;63796;53.136;14.882;2023-01-29T04:22:50;11.10;;;4.80;;
75209;SDS011;63796;53.136;14.882;2023-01-29T04:25:31;10.70;;;5.90;;
75209;SDS011;63796;53.136;14.882;2023-01-29T04:28:15;12.10;;;5.20;;
75209;SDS011;63796;53.136;14.882;2023-01-29T04:33:20;12.80;;;6.50;;
75209;SDS011;63796;53.136;14.882;2023-01-29T04:36:31;16.20;;;6.10;;
75209;SDS011;63796;53.136;14.882;2023-01-29T04:39:04;11.10;;;5.40;;
75209;SDS011;63796;53.136;14.882;2023-01-29T04:41:58;10.70;;;5.10;;
75209;SDS011;63796;53.136;14.882;2023-01-29T04:44:41;11.10;;;5.60;;
75209;SDS011;63796;53.136;14.882;2023-01-29T04:47:34;9.50;;;5.10;;
75209;SDS011;63796;53.136;14.882;2023-01-29T04:58:29;15.90;;;7.20;;
75209;SDS011;63796;53.136;14.882;2023-01-29T05:00:58;20.50;;;8.20;;
75209;SDS011;63796;53.136;14.882;2023-01-29T05:03:28;21.30;;;9.20;;
75209;SDS011;63796;53.136;14.882;2023-01-29T05:05:57;16.80;;;8.10;;
75209;SDS011;63796;53.136;14.882;2023-01-29T05:08:27;19.70;;;7.70;;
75209;SDS011;63796;53.136;14.882;2023-01-29T05:10:57;14.00;;;6.60;;
75209;SDS011;63796;53.136;14.882;2023-01-29T05:13:25;16.70;;;7.10;;
75209;SDS011;63796;53.136;14.882;2023-01-29T05:16:12;16.90;;;7.60;;
75209;SDS011;63796;53.136;14.882;2023-01-29T05:18:41;14.50;;;6.50;;
75209;SDS011;63796;53.136;14.882;2023-01-29T05:21:08;16.30;;;6.60;;
75209;SDS011;63796;53.136;14.882;2023-01-29T05:23:36;15.60;;;7.20;;
75209;SDS011;63796;53.136;14.882;2023-01-29T05:26:03;20.60;;;8.70;;
75209;SDS011;63796;53.136;14.882;2023-01-29T05:28:32;25.10;;;10.10;;
75209;SDS011;63796;53.136;14.882;2023-01-29T05:30:59;15.80;;;7.40;;
75209;SDS011;63796;53.136;14.882;2023-01-29T05:33:30;16.00;;;7.50;;
75209;SDS011;63796;53.136;14.882;2023-01-29T05:35:58;16.30;;;7.60;;
75209;SDS011;63796;53.136;14.882;2023-01-29T05:38:25;17.00;;;7.40;;
75209;SDS011;63796;53.136;14.882;2023-01-29T05:40:52;14.20;;;6.80;;
75209;SDS011;63796;53.136;14.882;2023-01-29T05:43:24;14.80;;;7.40;;
75209;SDS011;63796;53.136;14.882;2023-01-29T05:45:56;17.30;;;7.40;;
75209;SDS011;63796;53.136;14.882;2023-01-29T05:48:26;17.30;;;7.70;;
75209;SDS011;63796;53.136;14.882;2023-01-29T05:51:02;17.80;;;7.90;;
75209;SDS011;63796;53.136;14.882;2023-01-29T05:53:31;17.10;;;7.60;;
75209;SDS011;63796;53.136;14.882;2023-01-29T05:56:03;17.90;;;7.20;;
75209;SDS011;63796;53.136;14.882;2023-01-29T05:58:31;18.30;;;7.90;;
75209;SDS011;63796;53.136;14.882;2023-01-29T06:01:13;20.20;;;8.30;;
75209;SDS011;63796;53.136;14.882;2023-01-29T06:03:41;17.10;;;8.20;;
75209;SDS011;63796;53.136;14.882;2023-01-29T06:06:09;27.20;;;15.10;;
75209;SDS011;63796;53.136;14.882;2023-01-29T06:08:36;22.80;;;12.30;;
75209;SDS011;63796;53.136;14.882;2023-01-29T06:11:07;19.90;;;10.30;;
75209;SDS011;63796;53.136;14.882;2023-01-29T06:13:34;17.90;;;8.00;;
75209;SDS011;63796;53.136;14.882;2023-01-29T06:16:06;48.70;;;17.60;;
75209;SDS011;63796;53.136;14.882;2023-01-29T06:18:35;49.80;;;19.10;;
75209;SDS011;63796;53.136;14.882;2023-01-29T06:21:03;21.00;;;9.70;;
75209;SDS011;63796;53.136;14.882;2023-01-29T06:23:31;20.40;;;9.80;;
75209;SDS011;63796;53.136;14.882;2023-01-29T06:26:07;20.00;;;8.60;;
75209;SDS011;63796;53.136;14.882;2023-01-29T06:28:35;18.90;;;8.20;;
75209;SDS011;63796;53.136;14.882;2023-01-29T06:31:03;21.50;;;9.50;;
75209;SDS011;63796;53.136;14.882;2023-01-29T06:33:51;19.60;;;9.10;;
75209;SDS011;63796;53.136;14.882;2023-01-29T06:36:18;18.80;;;8.20;;
75209;SDS011;63796;53.136;14.882;2023-01-29T06:38:45;32.50;;;11.30;;
75209;SDS011;63796;53.136;14.882;2023-01-29T06:41:16;21.40;;;9.60;;
75209;SDS011;63796;53.136;14.882;2023-01-29T06:43:44;22.80;;;8.90;;
75209;SDS011;63796;53.136;14.882;2023-01-29T06:46:12;21.60;;;9.80;;
75209;SDS011;63796;53.136;14.882;2023-01-29T06:48:39;23.80;;;9.90;;
75209;SDS011;63796;53.136;14.882;2023-01-29T06:51:08;25.70;;;9.70;;
75209;SDS011;63796;53.136;14.882;2023-01-29T06:53:37;34.00;;;12.00;;
75209;SDS011;63796;53.136;14.882;2023-01-29T06:56:05;27.20;;;10.90;;
75209;SDS011;63796;53.136;14.882;2023-01-29T06:58:36;35.30;;;12.40;;
75209;SDS011;63796;53.136;14.882;2023-01-29T07:01:09;25.50;;;10.50;;
75209;SDS011;63796;53.136;14.882;2023-01-29T07:03:36;28.80;;;10.80;;
75209;SDS011;63796;53.136;14.882;2023-01-29T07:06:04;24.10;;;10.70;;
75209;SDS011;63796;53.136;14.882;2023-01-29T07:08:39;26.80;;;9.90;;
75209;SDS011;63796;53.136;14.882;2023-01-29T07:11:06;23.00;;;10.20;;
75209;SDS011;63796;53.136;14.882;2023-01-29T07:13:33;24.60;;;10.60;;
75209;SDS011;63796;53.136;14.882;2023-01-29T07:16:03;24.30;;;10.20;;
75209;SDS011;63796;53.136;14.882;2023-01-29T07:18:31;29.70;;;11.20;;
75209;SDS011;63796;53.136;14.882;2023-01-29T07:21:03;21.70;;;9.80;;
75209;SDS011;63796;53.136;14.882;2023-01-29T07:23:30;29.20;;;10.70;;
75209;SDS011;63796;53.136;14.882;2023-01-29T07:26:01;28.30;;;10.70;;
75209;SDS011;63796;53.136;14.882;2023-01-29T07:28:29;28.40;;;11.60;;
75209;SDS011;63796;53.136;14.882;2023-01-29T07:30:59;26.80;;;10.10;;
75209;SDS011;63796;53.136;14.882;2023-01-29T07:33:26;41.50;;;14.70;;
75209;SDS011;63796;53.136;14.882;2023-01-29T07:35:53;37.10;;;13.00;;
75209;SDS011;63796;53.136;14.882;2023-01-29T07:38:20;23.70;;;9.00;;
75209;SDS011;63796;53.136;14.882;2023-01-29T07:40:48;26.60;;;10.80;;
75209;SDS011;63796;53.136;14.882;2023-01-29T07:43:16;22.80;;;8.80;;
75209;SDS011;63796;53.136;14.882;2023-01-29T07:45:43;26.30;;;9.90;;
75209;SDS011;63796;53.136;14.882;2023-01-29T07:48:11;24.50;;;9.80;;
75209;SDS011;63796;53.136;14.882;2023-01-29T07:50:39;23.00;;;10.40;;
75209;SDS011;63796;53.136;14.882;2023-01-29T07:53:13;21.50;;;9.00;;
75209;SDS011;63796;53.136;14.882;2023-01-29T07:55:44;32.40;;;13.00;;
75209;SDS011;63796;53.136;14.882;2023-01-29T07:58:11;44.40;;;20.80;;
75209;SDS011;63796;53.136;14.882;2023-01-29T08:00:38;27.40;;;12.20;;
75209;SDS011;63796;53.136;14.882;2023-01-29T08:03:16;26.70;;;11.40;;
75209;SDS011;63796;53.136;14.882;2023-01-29T08:05:44;29.00;;;12.10;;
75209;SDS011;63796;53.136;14.882;2023-01-29T08:08:12;31.10;;;13.40;;
75209;SDS011;63796;53.136;14.882;2023-01-29T08:10:40;24.60;;;9.40;;
75209;SDS011;63796;53.136;14.882;2023-01-29T08:13:08;24.30;;;10.80;;
75209;SDS011;63796;53.136;14.882;2023-01-29T08:15:35;28.00;;;12.00;;
75209;SDS011;63796;53.136;14.882;2023-01-29T08:18:05;27.90;;;11.00;;
75209;SDS011;63796;53.136;14.882;2023-01-29T08:20:32;30.30;;;12.80;;
75209;SDS011;63796;53.136;14.882;2023-01-29T08:23:05;57.70;;;21.30;;
75209;SDS011;63796;53.136;14.882;2023-01-29T08:25:33;54.70;;;20.30;;
75209;SDS011;63796;53.136;14.882;2023-01-29T08:28:00;40.30;;;16.10;;
75209;SDS011;63796;53.136;14.882;2023-01-29T08:30:29;110.10;;;42.90;;
75209;SDS011;63796;53.136;14.882;2023-01-29T08:32:57;106.00;;;42.10;;
75209;SDS011;63796;53.136;14.882;2023-01-29T08:35:24;119.80;;;42.30;;
75209;SDS011;63796;53.136;14.882;2023-01-29T08:37:53;66.30;;;32.20;;
75209;SDS011;63796;53.136;14.882;2023-01-29T08:40:21;106.00;;;49.60;;
75209;SDS011;63796;53.136;14.882;2023-01-29T08:42:48;43.30;;;19.00;;
75209;SDS011;63796;53.136;14.882;2023-01-29T08:45:15;30.60;;;12.40;;
75209;SDS011;63796;53.136;14.882;2023-01-29T08:47:47;26.60;;;10.00;;
75209;SDS011;63796;53.136;14.882;2023-01-29T08:50:17;28.30;;;11.00;;
75209;SDS011;63796;53.136;14.882;2023-01-29T08:52:45;29.60;;;11.50;;
75209;SDS011;63796;53.136;14.882;2023-01-29T08:55:12;31.20;;;12.80;;
75209;SDS011;63796;53.136;14.882;2023-01-29T08:57:40;43.00;;;17.20;;
75209;SDS011;63796;53.136;14.882;2023-01-29T09:00:08;80.80;;;27.00;;
75209;SDS011;63796;53.136;14.882;2023-01-29T09:02:39;70.70;;;25.10;;
75209;SDS011;63796;53.136;14.882;2023-01-29T09:05:06;111.60;;;31.70;;
75209;SDS011;63796;53.136;14.882;2023-01-29T09:07:33;107.00;;;38.10;;
75209;SDS011;63796;53.136;14.882;2023-01-29T09:10:01;116.30;;;38.10;;
75209;SDS011;63796;53.136;14.882;2023-01-29T09:12:28;96.90;;;31.60;;
75209;SDS011;63796;53.136;14.882;2023-01-29T09:14:57;125.80;;;41.10;;
75209;SDS011;63796;53.136;14.882;2023-01-29T09:17:24;106.00;;;37.00;;
75209;SDS011;63796;53.136;14.882;2023-01-29T09:19:51;120.00;;;42.20;;
75209;SDS011;63796;53.136;14.882;2023-01-29T09:22:19;133.60;;;47.20;;
75209;SDS011;63796;53.136;14.882;2023-01-29T09:24:46;83.50;;;29.40;;
75209;SDS011;63796;53.136;14.882;2023-01-29T09:27:13;170.10;;;57.50;;
75209;SDS011;63796;53.136;14.882;2023-01-29T09:29:40;77.60;;;29.10;;
75209;SDS011;63796;53.136;14.882;2023-01-29T09:32:08;84.60;;;31.20;;
75209;SDS011;63796;53.136;14.882;2023-01-29T09:34:35;75.00;;;27.10;;
75209;SDS011;63796;53.136;14.882;2023-01-29T09:37:02;69.40;;;26.40;;
75209;SDS011;63796;53.136;14.882;2023-01-29T09:39:29;38.50;;;17.40;;
75209;SDS011;63796;53.136;14.882;2023-01-29T09:42:15;64.00;;;28.00;;
75209;SDS011;63796;53.136;14.882;2023-01-29T09:45:05;68.90;;;27.30;;
75209;SDS011;63796;53.136;14.882;2023-01-29T09:47:36;65.00;;;24.60;;
75209;SDS011;63796;53.136;14.882;2023-01-29T09:50:12;40.30;;;17.70;;
75209;SDS011;63796;53.136;14.882;2023-01-29T09:52:51;28.90;;;14.00;;
75209;SDS011;63796;53.136;14.882;2023-01-29T09:55:36;98.20;;;37.90;;
75209;SDS011;63796;53.136;14.882;2023-01-29T09:58:24;65.90;;;27.90;;
75209;SDS011;63796;53.136;14.882;2023-01-29T10:04:25;55.80;;;24.30;;
75209;SDS011;63796;53.136;14.882;2023-01-29T10:23:26;38.00;;;15.80;;
75209;SDS011;63796;53.136;14.882;2023-01-29T10:25:55;73.50;;;30.80;;
75209;SDS011;63796;53.136;14.882;2023-01-29T10:28:33;82.10;;;35.00;;
75209;SDS011;63796;53.136;14.882;2023-01-29T10:31:14;118.20;;;43.30;;
75209;SDS011;63796;53.136;14.882;2023-01-29T10:34:00;93.70;;;29.90;;
75209;SDS011;63796;53.136;14.882;2023-01-29T10:36:43;126.80;;;37.70;;
75209;SDS011;63796;53.136;14.882;2023-01-29T10:39:15;91.70;;;30.10;;
75209;SDS011;63796;53.136;14.882;2023-01-29T10:55:32;120.40;;;41.30;;
75209;SDS011;63796;53.136;14.882;2023-01-29T11:00:45;71.40;;;24.00;;
75209;SDS011;63796;53.136;14.882;2023-01-29T11:09:01;52.80;;;18.80;;
75209;SDS011;63796;53.136;14.882;2023-01-29T11:11:33;63.70;;;21.80;;
75209;SDS011;63796;53.136;14.882;2023-01-29T11:14:26;91.50;;;30.00;;
75209;SDS011;63796;53.136;14.882;2023-01-29T11:16:54;71.50;;;24.20;;
75209;SDS011;63796;53.136;14.882;2023-01-29T11:19:44;31.90;;;11.90;;
75209;SDS011;63796;53.136;14.882;2023-01-29T11:22:15;64.50;;;22.90;;
75209;SDS011;63796;53.136;14.882;2023-01-29T11:24:43;101.50;;;39.20;;
75209;SDS011;63796;53.136;14.882;2023-01-29T11:27:24;54.30;;;21.80;;
75209;SDS011;63796;53.136;14.882;2023-01-29T11:29:52;166.60;;;62.50;;
75209;SDS011;63796;53.136;14.882;2023-01-29T11:37:37;119.90;;;45.90;;
75209;SDS011;63796;53.136;14.882;2023-01-29T11:42:46;118.00;;;38.30;;
75209;SDS011;63796;53.136;14.882;2023-01-29T11:47:54;95.00;;;33.60;;
75209;SDS011;63796;53.136;14.882;2023-01-29T11:50:30;59.90;;;21.60;;
75209;SDS011;63796;53.136;14.882;2023-01-29T11:53:00;74.90;;;28.30;;
75209;SDS011;63796;53.136;14.882;2023-01-29T11:55:31;39.50;;;15.80;;
75209;SDS011;63796;53.136;14.882;2023-01-29T11:58:21;44.80;;;16.90;;
75209;SDS011;63796;53.136;14.882;2023-01-29T12:00:50;32.30;;;14.70;;
75209;SDS011;63796;53.136;14.882;2023-01-29T12:03:22;31.30;;;12.60;;
75209;SDS011;63796;53.136;14.882;2023-01-29T12:06:00;48.40;;;20.30;;
75209;SDS011;63796;53.136;14.882;2023-01-29T12:08:38;42.80;;;15.80;;
75209;SDS011;63796;53.136;14.882;2023-01-29T12:11:08;34.50;;;14.60;;
75209;SDS011;63796;53.136;14.882;2023-01-29T12:13:35;79.20;;;31.70;;
75209;SDS011;63796;53.136;14.882;2023-01-29T12:16:25;27.20;;;11.10;;
75209;SDS011;63796;53.136;14.882;2023-01-29T12:19:00;55.10;;;21.80;;
75209;SDS011;63796;53.136;14.882;2023-01-29T12:21:33;60.90;;;24.80;;
75209;SDS011;63796;53.136;14.882;2023-01-29T12:24:28;76.40;;;32.20;;
75209;SDS011;63796;53.136;14.882;2023-01-29T12:38:09;41.00;;;18.20;;
75209;SDS011;63796;53.136;14.882;2023-01-29T12:40:50;159.70;;;61.50;;
75209;SDS011;63796;53.136;14.882;2023-01-29T12:43:26;73.80;;;29.70;;
75209;SDS011;63796;53.136;14.882;2023-01-29T12:45:55;68.60;;;29.20;;
75209;SDS011;63796;53.136;14.882;2023-01-29T12:48:27;65.40;;;29.20;;
75209;SDS011;63796;53.136;14.882;2023-01-29T12:51:02;87.70;;;34.50;;
75209;SDS011;63796;53.136;14.882;2023-01-29T12:53:58;99.10;;;40.70;;
75209;SDS011;63796;53.136;14.882;2023-01-29T12:56:34;50.20;;;23.40;;
75209;SDS011;63796;53.136;14.882;2023-01-29T12:59:16;46.30;;;20.00;;
75209;SDS011;63796;53.136;14.882;2023-01-29T13:01:51;91.90;;;37.40;;
75209;SDS011;63796;53.136;14.882;2023-01-29T13:04:31;165.00;;;77.30;;
75209;SDS011;63796;53.136;14.882;2023-01-29T13:07:19;75.30;;;35.60;;
75209;SDS011;63796;53.136;14.882;2023-01-29T13:09:53;77.20;;;30.20;;
75209;SDS011;63796;53.136;14.882;2023-01-29T13:12:23;54.40;;;20.90;;
75209;SDS011;63796;53.136;14.882;2023-01-29T13:14:56;139.80;;;47.90;;
75209;SDS011;63796;53.136;14.882;2023-01-29T13:17:46;95.80;;;44.40;;
75209;SDS011;63796;53.136;14.882;2023-01-29T13:20:23;82.10;;;33.30;;
75209;SDS011;63796;53.136;14.882;2023-01-29T13:22:53;84.10;;;31.10;;
75209;SDS011;63796;53.136;14.882;2023-01-29T13:25:22;60.70;;;23.70;;
75209;SDS011;63796;53.136;14.882;2023-01-29T13:27:49;50.50;;;18.90;;
75209;SDS011;63796;53.136;14.882;2023-01-29T13:32:52;65.80;;;27.80;;
75209;SDS011;63796;53.136;14.882;2023-01-29T13:35:21;60.90;;;25.40;;
75209;SDS011;63796;53.136;14.882;2023-01-29T13:37:53;76.50;;;35.20;;
75209;SDS011;63796;53.136;14.882;2023-01-29T13:40:26;34.30;;;16.10;;
75209;SDS011;63796;53.136;14.882;2023-01-29T13:42:56;45.00;;;21.60;;
75209;SDS011;63796;53.136;14.882;2023-01-29T13:45:34;53.10;;;23.40;;
75209;SDS011;63796;53.136;14.882;2023-01-29T13:48:26;74.60;;;30.70;;
75209;SDS011;63796;53.136;14.882;2023-01-29T13:50:55;50.10;;;21.00;;
75209;SDS011;63796;53.136;14.882;2023-01-29T13:55:52;43.70;;;20.20;;
75209;SDS011;63796;53.136;14.882;2023-01-29T14:00:59;77.90;;;34.30;;
75209;SDS011;63796;53.136;14.882;2023-01-29T14:06:35;38.00;;;13.90;;
75209;SDS011;63796;53.136;14.882;2023-01-29T14:12:26;51.70;;;19.40;;
75209;SDS011;63796;53.136;14.882;2023-01-29T14:17:24;49.80;;;18.80;;
75209;SDS011;63796;53.136;14.882;2023-01-29T14:20:05;116.00;;;41.40;;
75209;SDS011;63796;53.136;14.882;2023-01-29T14:22:55;28.80;;;12.60;;
75209;SDS011;63796;53.136;14.882;2023-01-29T14:25:28;100.10;;;32.10;;
75209;SDS011;63796;53.136;14.882;2023-01-29T14:27:57;82.70;;;24.70;;
75209;SDS011;63796;53.136;14.882;2023-01-29T14:30:28;61.20;;;22.20;;
75209;SDS011;63796;53.136;14.882;2023-01-29T14:32:57;63.90;;;20.30;;
75209;SDS011;63796;53.136;14.882;2023-01-29T14:35:27;38.30;;;14.90;;
75209;SDS011;63796;53.136;14.882;2023-01-29T14:37:59;92.00;;;38.00;;
75209;SDS011;63796;53.136;14.882;2023-01-29T14:40:28;107.60;;;34.60;;
75209;SDS011;63796;53.136;14.882;2023-01-29T14:43:09;52.50;;;20.00;;
75209;SDS011;63796;53.136;14.882;2023-01-29T14:45:47;52.60;;;18.60;;
75209;SDS011;63796;53.136;14.882;2023-01-29T14:48:37;34.50;;;12.00;;
75209;SDS011;63796;53.136;14.882;2023-01-29T14:51:15;108.10;;;37.10;;
75209;SDS011;63796;53.136;14.882;2023-01-29T14:56:55;59.20;;;19.80;;
75209;SDS011;63796;53.136;14.882;2023-01-29T14:59:47;39.80;;;16.50;;
75209;SDS011;63796;53.136;14.882;2023-01-29T15:02:18;51.60;;;17.20;;
75209;SDS011;63796;53.136;14.882;2023-01-29T15:04:48;49.00;;;16.20;;
75209;SDS011;63796;53.136;14.882;2023-01-29T15:07:32;51.90;;;18.00;;
75209;SDS011;63796;53.136;14.882;2023-01-29T15:10:18;29.00;;;11.60;;
75209;SDS011;63796;53.136;14.882;2023-01-29T15:15:36;23.80;;;10.50;;
75209;SDS011;63796;53.136;14.882;2023-01-29T15:23:40;40.00;;;15.00;;
75209;SDS011;63796;53.136;14.882;2023-01-29T15:26:11;20.30;;;9.80;;
75209;SDS011;63796;53.136;14.882;2023-01-29T15:28:42;38.30;;;16.50;;
75209;SDS011;63796;53.136;14.882;2023-01-29T15:31:17;35.70;;;15.20;;
75209;SDS011;63796;53.136;14.882;2023-01-29T15:33:46;30.40;;;12.30;;
75209;SDS011;63796;53.136;14.882;2023-01-29T15:36:20;31.40;;;12.70;;
75209;SDS011;63796;53.136;14.882;2023-01-29T15:38:48;39.70;;;14.80;;
75209;SDS011;63796;53.136;14.882;2023-01-29T15:41:20;21.10;;;10.20;;
75209;SDS011;63796;53.136;14.882;2023-01-29T15:43:56;45.80;;;17.80;;
75209;SDS011;63796;53.136;14.882;2023-01-29T15:46:32;63.10;;;21.60;;
75209;SDS011;63796;53.136;14.882;2023-01-29T15:49:05;42.60;;;14.80;;
75209;SDS011;63796;53.136;14.882;2023-01-29T15:51:33;54.20;;;19.10;;
75209;SDS011;63796;53.136;14.882;2023-01-29T15:54:03;21.60;;;9.70;;
75209;SDS011;63796;53.136;14.882;2023-01-29T15:56:33;31.10;;;12.50;;
75209;SDS011;63796;53.136;14.882;2023-01-29T15:59:04;31.30;;;12.50;;
75209;SDS011;63796;53.136;14.882;2023-01-29T16:01:35;51.40;;;20.10;;
75209;SDS011;63796;53.136;14.882;2023-01-29T16:04:03;36.70;;;14.70;;
75209;SDS011;63796;53.136;14.882;2023-01-29T16:06:38;27.20;;;11.80;;
75209;SDS011;63796;53.136;14.882;2023-01-29T16:09:06;68.80;;;33.00;;
75209;SDS011;63796;53.136;14.882;2023-01-29T16:11:34;55.40;;;22.10;;
75209;SDS011;63796;53.136;14.882;2023-01-29T16:14:02;30.00;;;12.10;;
75209;SDS011;63796;53.136;14.882;2023-01-29T16:16:30;37.00;;;15.60;;
75209;SDS011;63796;53.136;14.882;2023-01-29T16:18:58;30.20;;;13.30;;
75209;SDS011;63796;53.136;14.882;2023-01-29T16:21:35;26.80;;;12.60;;
75209;SDS011;63796;53.136;14.882;2023-01-29T16:24:07;36.70;;;16.60;;
75209;SDS011;63796;53.136;14.882;2023-01-29T16:26:39;30.00;;;11.10;;
75209;SDS011;63796;53.136;14.882;2023-01-29T16:29:16;64.00;;;21.00;;
75209;SDS011;63796;53.136;14.882;2023-01-29T16:31:46;29.90;;;12.90;;
75209;SDS011;63796;53.136;14.882;2023-01-29T16:34:24;38.70;;;15.60;;
75209;SDS011;63796;53.136;14.882;2023-01-29T16:36:53;27.00;;;12.40;;
75209;SDS011;63796;53.136;14.882;2023-01-29T16:39:23;24.80;;;11.20;;
75209;SDS011;63796;53.136;14.882;2023-01-29T16:45:03;20.50;;;9.90;;
75209;SDS011;63796;53.136;14.882;2023-01-29T16:47:38;30.70;;;13.00;;
75209;SDS011;63796;53.136;14.882;2023-01-29T16:53:18;44.20;;;18.10;;
75209;SDS011;63796;53.136;14.882;2023-01-29T16:55:46;25.20;;;10.90;;
75209;SDS011;63796;53.136;14.882;2023-01-29T16:58:21;18.80;;;9.10;;